Anzahl Datensätze: 48
min. Temperatur: -2.3 °C
max. Temperatur: 3.7 °C
max. Windgeschwindigkeit: 14.4 km/h
Niederschlagsumme: 0.0 mm
| Datum |
Zeit |
Temp °C |
Feuchte % |
Taupunkt °C |
Luftdruck hPa |
Wind km/h |
Windrichtung |
Strahlung w/m² |
Niederschlag mm |
|---|---|---|---|---|---|---|---|---|---|
| 05.02.2025 | 00:00 | -2.1 | 93 | -3.1 | 1036.2 | 4.7 | SW | 0 | 0.0 |
| 05.02.2025 | 00:30 | -2.0 | 93 | -3.0 | 1036.5 | 4.7 | SSW | 0 | 0.0 |
| 05.02.2025 | 01:00 | -2.1 | 93 | -3.1 | 1036.6 | 3.2 | WSW | 0 | 0.0 |
| 05.02.2025 | 01:30 | -2.2 | 93 | -3.2 | 1037.0 | 3.2 | W | 0 | 0.0 |
| 05.02.2025 | 02:00 | -2.3 | 93 | -3.3 | 1037.2 | 3.2 | W | 0 | 0.0 |
| 05.02.2025 | 02:30 | -2.2 | 93 | -3.2 | 1037.1 | 1.4 | W | 0 | 0.0 |
| 05.02.2025 | 03:00 | -2.1 | 93 | -3.1 | 1037.3 | 1.4 | O | 0 | 0.0 |
| 05.02.2025 | 03:30 | -1.8 | 93 | -2.8 | 1037.4 | 0.0 | O | 0 | 0.0 |
| 05.02.2025 | 04:00 | -1.5 | 93 | -2.5 | 1037.6 | 0.0 | O | 0 | 0.0 |
| 05.02.2025 | 04:30 | -1.4 | 93 | -2.4 | 1037.6 | 0.0 | O | 0 | 0.0 |
| 05.02.2025 | 05:00 | -1.2 | 93 | -2.2 | 1037.9 | 0.0 | O | 0 | 0.0 |
| 05.02.2025 | 05:30 | -1.1 | 93 | -2.1 | 1038.3 | 0.0 | O | 0 | 0.0 |
| 05.02.2025 | 06:00 | -0.9 | 94 | -1.7 | 1038.4 | 0.0 | O | 0 | 0.0 |
| 05.02.2025 | 06:30 | -0.8 | 94 | -1.6 | 1038.6 | 0.0 | O | 0 | 0.0 |
| 05.02.2025 | 07:00 | -0.6 | 94 | -1.4 | 1038.9 | 0.0 | O | 0 | 0.0 |
| 05.02.2025 | 07:30 | -0.5 | 94 | -1.3 | 1039.2 | 0.0 | O | 0 | 0.0 |
| 05.02.2025 | 08:00 | -0.4 | 94 | -1.2 | 1039.6 | 0.0 | O | 0 | 0.0 |
| 05.02.2025 | 08:30 | -0.3 | 94 | -1.1 | 1040.0 | 0.0 | O | 0 | 0.0 |
| 05.02.2025 | 09:00 | -0.1 | 94 | -0.9 | 1040.3 | 0.0 | O | 18 | 0.0 |
| 05.02.2025 | 09:30 | 0.3 | 95 | -0.4 | 1040.6 | 1.4 | NNO | 23 | 0.0 |
| 05.02.2025 | 10:00 | 0.6 | 95 | -0.1 | 1040.9 | 0.0 | NNO | 49 | 0.0 |
| 05.02.2025 | 10:30 | 1.1 | 95 | 0.4 | 1041.1 | 0.0 | NNO | 116 | 0.0 |
| 05.02.2025 | 11:00 | 1.6 | 94 | 0.7 | 1041.5 | 0.0 | NNO | 76 | 0.0 |
| 05.02.2025 | 11:30 | 1.9 | 94 | 1.0 | 1041.7 | 0.0 | NNO | 72 | 0.0 |
| 05.02.2025 | 12:00 | 2.2 | 94 | 1.3 | 1041.7 | 0.0 | NNO | 91 | 0.0 |
| 05.02.2025 | 12:30 | 2.4 | 94 | 1.5 | 1041.6 | 0.0 | NNO | 81 | 0.0 |
| 05.02.2025 | 13:00 | 2.8 | 94 | 1.9 | 1041.5 | 3.2 | W | 93 | 0.0 |
| 05.02.2025 | 13:30 | 2.9 | 94 | 2.0 | 1041.5 | 3.2 | W | 79 | 0.0 |
| 05.02.2025 | 14:00 | 3.2 | 94 | 2.3 | 1041.2 | 0.0 | WSW | 79 | 0.0 |
| 05.02.2025 | 14:30 | 3.4 | 94 | 2.5 | 1041.5 | 1.4 | W | 72 | 0.0 |
| 05.02.2025 | 15:00 | 3.5 | 93 | 2.5 | 1041.7 | 1.4 | OSO | 51 | 0.0 |
| 05.02.2025 | 15:30 | 3.7 | 94 | 2.8 | 1041.9 | 1.4 | OSO | 44 | 0.0 |
| 05.02.2025 | 16:00 | 3.3 | 93 | 2.3 | 1042.0 | 6.5 | O | 28 | 0.0 |
| 05.02.2025 | 16:30 | 3.2 | 93 | 2.2 | 1042.2 | 1.4 | ONO | 23 | 0.0 |
| 05.02.2025 | 17:00 | 3.1 | 93 | 2.1 | 1042.3 | 0.0 | ONO | 11 | 0.0 |
| 05.02.2025 | 17:30 | 2.9 | 93 | 1.9 | 1042.7 | 1.4 | SO | 0 | 0.0 |
| 05.02.2025 | 18:00 | 2.7 | 93 | 1.7 | 1043.2 | 1.4 | ONO | 0 | 0.0 |
| 05.02.2025 | 18:30 | 2.6 | 93 | 1.6 | 1043.6 | 0.0 | O | 0 | 0.0 |
| 05.02.2025 | 19:00 | 2.3 | 93 | 1.3 | 1043.8 | 1.4 | O | 0 | 0.0 |
| 05.02.2025 | 19:30 | 2.4 | 94 | 1.5 | 1043.8 | 0.0 | O | 0 | 0.0 |
| 05.02.2025 | 20:00 | 2.5 | 94 | 1.6 | 1043.9 | 0.0 | O | 0 | 0.0 |
| 05.02.2025 | 20:30 | 2.6 | 93 | 1.6 | 1044.0 | 1.4 | O | 0 | 0.0 |
| 05.02.2025 | 21:00 | 2.6 | 93 | 1.6 | 1043.8 | 7.9 | O | 0 | 0.0 |
| 05.02.2025 | 21:30 | 2.3 | 93 | 1.3 | 1044.0 | 1.4 | OSO | 0 | 0.0 |
| 05.02.2025 | 22:00 | 2.3 | 94 | 1.4 | 1044.0 | 1.4 | OSO | 0 | 0.0 |
| 05.02.2025 | 22:30 | 2.3 | 94 | 1.4 | 1044.0 | 1.4 | NO | 0 | 0.0 |
| 05.02.2025 | 23:00 | 2.4 | 94 | 1.5 | 1043.9 | 4.7 | O | 0 | 0.0 |
| 05.02.2025 | 23:30 | 2.3 | 93 | 1.3 | 1043.7 | 1.4 | ONO | 0 | 0.0 |